YAYE/AYQ METAR and TAF weather

Enter ICAO airport designator
Station Type Date Time Source
YAYE METAR 2019/04/20 18:00 UTC NOAA

YAYE 201800Z AUTO 17011KT 9999 // NCD 15/10 Q1017


Station Type Date Time Source
YAYE Decoded METAR 2019/04/20 18:00 UTC NOAA

Ayers Rock, Australia (YAYE) 25-11S 130-58E
Apr 20, 2019 - 02:00 PM EDT / 2019.04.20 1800 UTC
Wind: from the S (170 degrees) at 13 MPH (11 KT):0
Visibility: greater than 7 mile(s):0
Temperature: 59 F (15 C)
Dew Point: 50 F (10 C)
Relative Humidity: 72%
Pressure (altimeter): 30.03 in. Hg (1017 hPa)
ob: YAYE 201800Z AUTO 17011KT 9999 // NCD 15/10 Q1017
cycle: 18

Station Type Date Time Source
YAYE TAF UTC NOAA

Error!

Example: see airport list